Time;durP1;ratioP1;P1;durP2;ratioP2;P2;SDS_P1;SDS_P2;PMS_P1;PMS_P2;Temp;Humidity;BMP_temperature;BMP_pressure;BME280_temperature;BME280_humidity;BME280_pressure;Samples;Min_cycle;Max_cycle;Signal;HPM_P1;HPM_P2
2021/05/16 00:01:34;;;;;;;1.25;0.50;;;13.30;79.60;;;;;;5062959;28;20112;-61
2021/05/16 00:04:00;;;;;;;2.10;0.50;;;13.30;79.60;;;;;;5057856;28;20495;-62
2021/05/16 00:06:27;;;;;;;1.23;0.60;;;13.30;79.50;;;;;;5052935;28;20028;-62
2021/05/16 00:08:52;;;;;;;0.77;0.50;;;13.30;79.60;;;;;;5060807;28;20024;-62
2021/05/16 00:11:18;;;;;;;1.05;0.40;;;13.30;79.60;;;;;;5062792;28;20069;-62
2021/05/16 00:13:43;;;;;;;0.90;0.40;;;13.30;79.70;;;;;;5061294;28;20032;-62
2021/05/16 00:16:09;;;;;;;1.60;0.57;;;13.30;79.70;;;;;;5059511;28;20396;-62
2021/05/16 00:18:34;;;;;;;0.95;0.45;;;13.30;79.70;;;;;;5053030;28;20082;-62
2021/05/16 00:21:00;;;;;;;1.02;0.50;;;13.30;79.70;;;;;;5058758;28;20514;-62
2021/05/16 00:23:25;;;;;;;1.42;0.30;;;13.30;79.70;;;;;;5052188;28;20025;-62
2021/05/16 00:25:51;;;;;;;1.10;0.57;;;13.30;79.80;;;;;;5061457;28;20028;-62
2021/05/16 00:28:16;;;;;;;12.63;0.88;;;13.20;79.70;;;;;;5059794;28;20242;-62
2021/05/16 00:30:42;;;;;;;0.95;0.40;;;13.20;79.70;;;;;;5055184;28;20040;-62
2021/05/16 00:33:07;;;;;;;1.95;0.55;;;13.20;79.80;;;;;;5057129;28;20032;-62
2021/05/16 00:35:33;;;;;;;0.80;0.20;;;13.20;79.80;;;;;;5061114;28;20485;-62
2021/05/16 00:38:00;;;;;;;0.30;0.20;;;13.20;79.80;;;;;;5058111;28;20547;-62
2021/05/16 00:40:25;;;;;;;1.52;0.57;;;13.10;79.80;;;;;;5056159;28;20029;-62
2021/05/16 00:42:51;;;;;;;2.33;0.43;;;13.10;79.90;;;;;;5063063;28;20050;-62
2021/05/16 00:45:18;;;;;;;1.10;0.50;;;13.10;79.80;;;;;;5063860;28;20050;-62
2021/05/16 00:47:52;;;;;;;0.50;0.32;;;13.10;79.80;;;;;;5059252;28;20025;-62
2021/05/16 00:50:18;;;;;;;1.45;0.40;;;13.10;79.90;;;;;;5059206;28;20114;-62
2021/05/16 00:52:44;;;;;;;0.60;0.40;;;13.10;79.90;;;;;;5058385;28;20127;-62
2021/05/16 00:55:11;;;;;;;1.77;0.40;;;13.10;79.90;;;;;;5060553;28;20116;-62
2021/05/16 00:57:36;;;;;;;0.45;0.38;;;13.10;79.90;;;;;;5059466;28;20047;-62
2021/05/16 01:00:04;;;;;;;1.30;0.22;;;13.10;79.90;;;;;;5055922;28;20210;-62
2021/05/16 01:02:29;;;;;;;1.52;0.40;;;13.00;79.90;;;;;;5055902;28;20032;-62
2021/05/16 01:04:55;;;;;;;0.98;0.40;;;13.10;80.00;;;;;;5060997;28;20059;-62
2021/05/16 01:07:20;;;;;;;1.38;0.50;;;13.00;79.90;;;;;;5064020;28;20031;-62
2021/05/16 01:09:46;;;;;;;0.80;0.40;;;13.00;79.90;;;;;;5059669;28;20174;-62
2021/05/16 01:12:11;;;;;;;0.80;0.40;;;13.00;79.90;;;;;;5065947;28;20119;-62
2021/05/16 01:14:47;;;;;;;0.30;0.30;;;13.00;79.90;;;;;;5060773;28;20437;-62
2021/05/16 01:17:13;;;;;;;0.70;0.40;;;13.00;79.90;;;;;;5061313;28;20415;-62
2021/05/16 01:19:38;;;;;;;1.15;0.50;;;13.00;79.90;;;;;;5062371;28;20047;-62
2021/05/16 01:22:05;;;;;;;0.50;0.43;;;13.00;79.90;;;;;;5054257;28;20052;-62
2021/05/16 01:24:31;;;;;;;1.48;0.50;;;13.00;79.90;;;;;;5061970;28;20049;-62
2021/05/16 01:26:59;;;;;;;0.68;0.40;;;12.90;79.90;;;;;;5061819;28;20531;-61
2021/05/16 01:29:26;;;;;;;0.52;0.40;;;13.00;80.00;;;;;;5058405;28;20376;-62
2021/05/16 01:31:52;;;;;;;0.82;0.60;;;13.00;80.00;;;;;;5064448;28;20097;-62
2021/05/16 01:34:17;;;;;;;0.30;0.30;;;13.00;80.00;;;;;;5060997;28;20033;-62
2021/05/16 01:36:43;;;;;;;1.08;0.40;;;12.90;80.00;;;;;;5047214;28;20064;-62
2021/05/16 01:39:12;;;;;;;0.40;0.30;;;12.90;80.00;;;;;;5059866;28;20059;-62
2021/05/16 01:41:38;;;;;;;1.23;0.30;;;12.90;80.00;;;;;;5062648;28;20060;-62
2021/05/16 01:44:04;;;;;;;1.10;0.50;;;12.90;80.00;;;;;;5061329;28;20079;-62
2021/05/16 01:46:30;;;;;;;0.82;0.50;;;12.90;80.00;;;;;;5063333;28;20230;-62
2021/05/16 01:48:55;;;;;;;1.92;0.40;;;12.90;80.10;;;;;;5056811;28;20051;-62
2021/05/16 01:51:21;;;;;;;0.77;0.40;;;12.80;80.10;;;;;;5045794;28;20041;-62
2021/05/16 01:53:48;;;;;;;2.03;0.60;;;12.80;80.10;;;;;;5061930;28;20035;-62
2021/05/16 01:56:25;;;;;;;1.10;0.40;;;12.90;80.20;;;;;;5060327;28;20039;-62
2021/05/16 01:58:50;;;;;;;1.70;0.47;;;12.80;80.20;;;;;;5066420;28;20419;-62
2021/05/16 02:01:16;;;;;;;0.40;0.22;;;12.80;80.30;;;;;;5062741;28;20028;-61
2021/05/16 02:03:42;;;;;;;0.77;0.50;;;12.80;80.20;;;;;;5063136;28;20486;-62
2021/05/16 02:06:08;;;;;;;0.63;0.40;;;12.90;80.20;;;;;;5048116;28;20109;-62
2021/05/16 02:08:34;;;;;;;1.90;0.70;;;12.80;80.20;;;;;;5043111;28;20524;-62
2021/05/16 02:11:00;;;;;;;0.82;0.30;;;12.80;80.20;;;;;;5065257;28;20104;-63
2021/05/16 02:13:26;;;;;;;0.30;0.30;;;12.80;80.20;;;;;;5056828;28;20416;-62
2021/05/16 02:15:51;;;;;;;1.40;0.50;;;12.80;80.20;;;;;;5062243;28;20024;-63
2021/05/16 02:18:17;;;;;;;0.50;0.40;;;12.80;80.20;;;;;;5058549;28;20071;-62
2021/05/16 02:20:43;;;;;;;0.95;0.57;;;12.80;80.30;;;;;;5060940;28;20045;-62
2021/05/16 02:23:09;;;;;;;1.52;0.50;;;12.80;80.20;;;;;;5064558;28;20040;-61
2021/05/16 02:25:35;;;;;;;0.98;0.40;;;12.80;80.20;;;;;;5056200;28;20048;-62
2021/05/16 02:28:01;;;;;;;1.13;0.40;;;12.80;80.30;;;;;;5061821;28;20016;-61
2021/05/16 02:30:26;;;;;;;0.25;0.20;;;12.70;80.20;;;;;;5062224;28;20029;-62
2021/05/16 02:32:52;;;;;;;1.75;0.50;;;12.70;80.30;;;;;;5065036;28;20044;-62
2021/05/16 02:35:17;;;;;;;1.33;0.60;;;12.70;80.40;;;;;;5063756;28;20036;-62
2021/05/16 02:37:43;;;;;;;0.50;0.30;;;12.70;80.50;;;;;;5044827;28;20553;-62
2021/05/16 02:40:09;;;;;;;1.00;0.35;;;12.70;80.50;;;;;;5057695;28;20099;-62
2021/05/16 02:42:34;;;;;;;1.33;0.45;;;12.70;80.50;;;;;;5062600;28;20040;-62
2021/05/16 02:45:00;;;;;;;1.15;0.50;;;12.70;80.50;;;;;;5060891;28;20021;-61
2021/05/16 02:47:25;;;;;;;1.63;0.40;;;12.70;80.50;;;;;;5063645;28;20086;-62
2021/05/16 02:49:51;;;;;;;1.52;0.57;;;12.70;80.60;;;;;;5063163;28;20118;-62
2021/05/16 02:52:16;;;;;;;0.65;0.30;;;12.60;80.40;;;;;;5064503;28;20150;-62
2021/05/16 02:54:43;;;;;;;1.10;0.50;;;12.70;80.50;;;;;;5063818;28;20029;-63
2021/05/16 02:57:08;;;;;;;1.17;0.43;;;12.90;80.50;;;;;;5059920;28;20035;-62
2021/05/16 02:59:34;;;;;;;1.75;0.60;;;12.60;80.40;;;;;;5060003;28;20029;-62
2021/05/16 03:01:59;;;;;;;0.50;0.30;;;12.70;80.60;;;;;;5062560;28;20037;-62
2021/05/16 03:04:25;;;;;;;1.08;0.43;;;12.60;80.60;;;;;;5060620;28;20043;-61
2021/05/16 03:06:51;;;;;;;1.45;0.40;;;12.60;80.60;;;;;;5058051;28;20027;-62
2021/05/16 03:09:16;;;;;;;2.05;0.30;;;12.60;80.60;;;;;;5053977;28;20095;-62
2021/05/16 03:11:42;;;;;;;0.57;0.45;;;12.60;80.60;;;;;;5060244;28;20085;-62
2021/05/16 03:14:08;;;;;;;1.17;0.50;;;12.60;80.60;;;;;;5062122;28;20083;-62
2021/05/16 03:16:34;;;;;;;2.80;0.35;;;12.60;80.60;;;;;;5063844;28;20056;-62
2021/05/16 03:18:59;;;;;;;0.90;0.40;;;12.60;80.60;;;;;;5057559;28;20052;-62
2021/05/16 03:21:25;;;;;;;0.25;0.25;;;12.60;80.60;;;;;;5063260;28;20491;-63
2021/05/16 03:23:50;;;;;;;0.75;0.47;;;12.60;80.60;;;;;;5061107;28;20032;-62
2021/05/16 03:26:16;;;;;;;2.35;0.40;;;12.60;80.70;;;;;;5059258;28;20044;-62
2021/05/16 03:28:42;;;;;;;0.52;0.40;;;12.60;80.70;;;;;;5062307;28;20119;-62
2021/05/16 03:31:07;;;;;;;0.80;0.35;;;12.60;80.80;;;;;;5062515;28;20036;-62
2021/05/16 03:33:33;;;;;;;1.15;0.40;;;12.50;80.70;;;;;;5061403;28;20468;-61
2021/05/16 03:35:58;;;;;;;2.05;0.70;;;12.50;80.70;;;;;;5063636;28;20472;-62
2021/05/16 03:38:24;;;;;;;1.13;0.45;;;12.50;80.70;;;;;;5059853;28;20052;-62
2021/05/16 03:40:49;;;;;;;3.40;0.45;;;12.50;80.70;;;;;;5061834;28;20084;-62
2021/05/16 03:43:15;;;;;;;1.27;0.57;;;12.50;80.80;;;;;;5059196;28;20404;-62
2021/05/16 03:45:40;;;;;;;1.23;0.47;;;12.50;80.80;;;;;;5059948;28;20028;-62
2021/05/16 03:48:06;;;;;;;0.65;0.35;;;12.50;80.80;;;;;;5046299;28;20357;-62
2021/05/16 03:50:31;;;;;;;1.02;0.30;;;12.50;80.80;;;;;;5058810;28;20040;-63
2021/05/16 03:52:57;;;;;;;1.42;0.50;;;12.50;80.80;;;;;;5059352;28;20044;-62
2021/05/16 03:55:23;;;;;;;1.08;0.22;;;12.50;80.90;;;;;;5055664;28;20024;-62
2021/05/16 03:57:51;;;;;;;2.25;0.45;;;12.50;80.80;;;;;;5059295;28;20345;-62
2021/05/16 04:00:17;;;;;;;0.55;0.30;;;12.50;80.90;;;;;;5060530;28;20035;-62
2021/05/16 04:02:43;;;;;;;0.75;0.30;;;12.50;80.90;;;;;;5056726;28;20024;-62
2021/05/16 04:05:09;;;;;;;1.38;0.50;;;12.50;80.90;;;;;;5060392;28;20025;-62
2021/05/16 04:07:35;;;;;;;0.90;0.50;;;12.50;80.80;;;;;;5038951;28;20036;-62
2021/05/16 04:10:00;;;;;;;0.38;0.30;;;12.50;80.80;;;;;;5043421;28;20040;-61
2021/05/16 04:12:26;;;;;;;2.05;0.38;;;12.50;80.80;;;;;;5053931;28;20094;-63
2021/05/16 04:14:52;;;;;;;0.65;0.32;;;12.50;80.80;;;;;;5064385;28;20025;-62
2021/05/16 04:17:19;;;;;;;0.98;0.40;;;12.50;80.70;;;;;;5057373;28;20139;-63
2021/05/16 04:19:44;;;;;;;0.82;0.40;;;12.50;80.70;;;;;;5058469;28;20049;-62
2021/05/16 04:22:10;;;;;;;0.98;0.50;;;12.30;80.70;;;;;;5061483;28;20119;-62
2021/05/16 04:24:35;;;;;;;1.10;0.60;;;12.40;80.70;;;;;;5063111;28;20035;-62
2021/05/16 04:27:01;;;;;;;1.35;0.60;;;12.40;81.30;;;;;;5061812;28;20661;-62
2021/05/16 04:29:26;;;;;;;0.50;0.40;;;12.50;81.00;;;;;;5062775;28;20048;-62
2021/05/16 04:31:52;;;;;;;1.08;0.50;;;12.40;81.00;;;;;;5060756;28;20037;-62
2021/05/16 04:34:17;;;;;;;2.15;0.57;;;12.50;81.10;;;;;;5061940;28;20115;-62
2021/05/16 04:36:43;;;;;;;0.98;0.38;;;12.50;81.20;;;;;;5044929;28;20037;-62
2021/05/16 04:39:08;;;;;;;1.20;0.65;;;12.50;81.20;;;;;;5054749;28;20028;-62
2021/05/16 04:41:34;;;;;;;3.33;0.38;;;12.50;81.20;;;;;;5066989;28;20111;-62
2021/05/16 04:44:00;;;;;;;4.50;0.88;;;12.50;81.20;;;;;;5065711;28;20059;-62
2021/05/16 04:46:26;;;;;;;0.95;0.50;;;12.50;81.30;;;;;;5064168;28;20032;-62
2021/05/16 04:48:52;;;;;;;1.83;0.43;;;12.50;81.20;;;;;;5063996;28;20045;-63
2021/05/16 04:51:17;;;;;;;0.55;0.30;;;12.50;81.30;;;;;;5063731;28;20288;-63
2021/05/16 04:53:43;;;;;;;2.28;0.57;;;12.50;81.30;;;;;;5060884;28;20033;-62
2021/05/16 04:56:08;;;;;;;2.00;0.50;;;12.50;81.20;;;;;;5064835;28;20020;-62
2021/05/16 04:58:34;;;;;;;3.63;0.47;;;12.50;82.00;;;;;;5061286;28;20504;-62
2021/05/16 05:01:00;;;;;;;1.55;0.57;;;12.50;81.30;;;;;;5063125;28;20052;-63
2021/05/16 05:03:26;;;;;;;1.63;0.50;;;12.50;81.60;;;;;;5058705;28;20033;-62
2021/05/16 05:05:53;;;;;;;3.38;0.90;;;12.50;81.50;;;;;;5062724;28;20023;-62
2021/05/16 05:08:18;;;;;;;2.08;0.60;;;12.60;81.30;;;;;;5046103;28;20025;-62
2021/05/16 05:10:44;;;;;;;3.47;0.52;;;12.60;81.30;;;;;;5045656;28;20037;-63
2021/05/16 05:13:09;;;;;;;1.60;0.50;;;12.50;81.20;;;;;;5059156;28;20035;-61
2021/05/16 05:15:35;;;;;;;0.63;0.50;;;12.60;81.30;;;;;;5058032;28;20032;-63
2021/05/16 05:18:00;;;;;;;2.22;0.65;;;12.60;81.30;;;;;;5058469;28;20431;-62
2021/05/16 05:20:26;;;;;;;6.43;0.80;;;12.60;81.50;;;;;;5062193;28;20041;-62
2021/05/16 05:22:52;;;;;;;2.80;0.70;;;12.60;81.50;;;;;;5060618;28;20037;-62
2021/05/16 05:25:17;;;;;;;4.55;0.98;;;12.60;81.40;;;;;;5063497;28;20040;-62
2021/05/16 05:27:43;;;;;;;13.07;1.42;;;12.60;81.40;;;;;;5063601;28;20039;-63
2021/05/16 05:30:09;;;;;;;2.28;0.60;;;12.60;81.30;;;;;;5060820;28;20117;-62
2021/05/16 05:32:35;;;;;;;2.03;0.75;;;12.60;81.20;;;;;;5045238;28;20435;-62
2021/05/16 05:35:00;;;;;;;3.53;0.73;;;12.60;81.20;;;;;;5047818;28;20029;-62
2021/05/16 05:37:26;;;;;;;4.57;0.80;;;12.70;81.20;;;;;;5060685;28;20032;-62
2021/05/16 05:39:51;;;;;;;5.57;1.00;;;12.60;81.30;;;;;;5063386;28;20028;-62
2021/05/16 05:42:17;;;;;;;16.27;1.25;;;12.70;81.00;;;;;;5063255;28;20021;-62
2021/05/16 05:44:42;;;;;;;7.00;1.45;;;12.70;81.30;;;;;;5057341;28;20594;-62
2021/05/16 05:47:08;;;;;;;3.05;0.80;;;12.70;81.50;;;;;;5061801;28;20490;-62
2021/05/16 05:49:33;;;;;;;5.50;1.38;;;12.70;81.30;;;;;;5056627;28;20111;-62
2021/05/16 05:52:00;;;;;;;3.42;0.90;;;12.70;80.90;;;;;;5060531;28;20076;-62
2021/05/16 05:54:26;;;;;;;4.43;1.15;;;12.60;80.90;;;;;;5062821;28;20151;-62
2021/05/16 05:56:52;;;;;;;3.55;0.93;;;12.70;81.10;;;;;;5064397;28;20063;-62
2021/05/16 05:59:17;;;;;;;5.07;1.00;;;12.70;81.10;;;;;;5061626;28;20056;-62
2021/05/16 06:01:43;;;;;;;4.88;0.85;;;12.70;81.00;;;;;;5063652;28;20056;-62
2021/05/16 06:04:08;;;;;;;4.72;1.02;;;12.70;81.10;;;;;;5062795;28;20043;-62
2021/05/16 06:06:34;;;;;;;3.42;0.98;;;12.70;81.30;;;;;;5061140;28;20117;-62
2021/05/16 06:08:59;;;;;;;3.85;1.35;;;12.80;81.40;;;;;;5060900;28;20043;-62
2021/05/16 06:11:25;;;;;;;4.00;1.30;;;12.80;81.60;;;;;;5056131;28;20388;-62
2021/05/16 06:13:50;;;;;;;10.85;1.15;;;12.80;81.30;;;;;;5063780;28;20283;-63
2021/05/16 06:16:16;;;;;;;6.60;1.10;;;12.80;81.30;;;;;;5058983;28;20036;-62
2021/05/16 06:18:41;;;;;;;7.40;1.42;;;12.90;81.60;;;;;;5062259;28;20067;-62
2021/05/16 06:21:07;;;;;;;9.52;1.00;;;12.90;81.50;;;;;;5064622;28;20076;-62
2021/05/16 06:23:43;;;;;;;11.30;1.50;;;12.90;81.80;;;;;;5065355;28;20399;-62
2021/05/16 06:26:09;;;;;;;6.75;1.15;;;12.90;81.60;;;;;;5061896;28;20017;-62
2021/05/16 06:28:34;;;;;;;8.00;1.30;;;12.90;81.40;;;;;;5062160;28;20416;-62
2021/05/16 06:31:00;;;;;;;3.60;1.40;;;12.90;81.40;;;;;;5062724;28;20108;-62
2021/05/16 06:33:26;;;;;;;4.68;1.10;;;12.90;81.20;;;;;;5064634;28;20043;-62
2021/05/16 06:35:51;;;;;;;6.97;1.15;;;13.00;81.10;;;;;;5063796;28;20038;-62
2021/05/16 06:38:17;;;;;;;7.85;2.42;;;13.00;81.30;;;;;;5059615;28;20031;-62
2021/05/16 06:40:42;;;;;;;15.98;1.40;;;13.00;81.30;;;;;;5061360;28;20459;-62
2021/05/16 06:43:08;;;;;;;8.50;1.52;;;13.00;81.00;;;;;;5058541;28;20028;-62
2021/05/16 06:45:33;;;;;;;12.77;1.55;;;13.10;80.90;;;;;;5070327;28;20497;-62
2021/05/16 06:47:59;;;;;;;11.75;1.88;;;13.10;80.90;;;;;;5063750;28;20523;-62
2021/05/16 06:50:25;;;;;;;6.80;2.10;;;13.10;80.70;;;;;;5062959;28;20384;-62
2021/05/16 06:52:50;;;;;;;17.33;2.08;;;13.10;80.70;;;;;;5059102;28;20024;-62
2021/05/16 06:55:16;;;;;;;16.38;2.38;;;13.20;80.60;;;;;;5062640;28;20530;-62
2021/05/16 06:57:42;;;;;;;12.57;1.50;;;13.20;80.50;;;;;;5061507;28;20640;-63
2021/05/16 07:00:08;;;;;;;7.57;1.20;;;13.20;80.40;;;;;;5063778;28;20028;-62
2021/05/16 07:02:34;;;;;;;11.73;1.60;;;13.20;80.40;;;;;;5061578;28;20033;-62
2021/05/16 07:04:59;;;;;;;10.80;1.67;;;13.30;80.40;;;;;;5063510;28;20045;-62
2021/05/16 07:07:25;;;;;;;9.05;1.38;;;13.30;80.20;;;;;;5062662;28;20033;-62
2021/05/16 07:09:50;;;;;;;10.48;1.33;;;13.30;80.10;;;;;;5056437;28;20263;-63
2021/05/16 07:12:16;;;;;;;7.15;1.15;;;13.30;80.10;;;;;;5059795;28;20365;-63
2021/05/16 07:14:41;;;;;;;11.65;1.52;;;13.40;80.00;;;;;;5062812;28;20039;-62
2021/05/16 07:17:07;;;;;;;7.38;0.85;;;13.40;79.90;;;;;;5062028;28;20116;-63
2021/05/16 07:19:33;;;;;;;5.50;1.20;;;13.40;79.90;;;;;;5059658;28;20041;-62
2021/05/16 07:21:59;;;;;;;5.40;1.20;;;13.40;79.90;;;;;;5061296;28;20438;-63
2021/05/16 07:24:24;;;;;;;7.65;1.45;;;13.50;79.70;;;;;;5053485;28;20127;-62
2021/05/16 07:26:50;;;;;;;6.85;1.38;;;13.50;79.80;;;;;;5059114;28;20045;-63
2021/05/16 07:29:16;;;;;;;2.08;0.73;;;13.50;79.90;;;;;;5046800;28;20107;-63
2021/05/16 07:31:41;;;;;;;2.83;1.23;;;13.50;79.90;;;;;;5056819;28;20381;-63
2021/05/16 07:34:07;;;;;;;4.90;1.13;;;13.60;80.60;;;;;;5056669;28;20052;-63
2021/05/16 07:36:36;;;;;;;4.97;1.05;;;13.50;79.80;;;;;;5062277;28;20044;-62
2021/05/16 07:39:02;;;;;;;6.80;0.98;;;13.60;80.00;;;;;;5043129;28;20054;-62
2021/05/16 07:41:28;;;;;;;4.35;1.27;;;13.60;80.00;;;;;;5058937;28;20033;-61
2021/05/16 07:43:53;;;;;;;4.90;1.10;;;13.60;79.80;;;;;;5055363;28;20039;-61
2021/05/16 07:46:19;;;;;;;3.78;1.05;;;13.70;79.80;;;;;;5056689;28;20029;-63
2021/05/16 07:48:44;;;;;;;9.23;1.17;;;13.70;79.80;;;;;;5058876;28;20108;-63
2021/05/16 07:51:10;;;;;;;7.57;1.20;;;13.70;79.80;;;;;;5059944;28;20369;-62
2021/05/16 07:53:35;;;;;;;3.00;0.90;;;13.70;79.70;;;;;;5044891;28;20045;-63
2021/05/16 07:56:03;;;;;;;8.30;1.10;;;13.80;79.70;;;;;;5060780;28;20389;-63
2021/05/16 07:58:29;;;;;;;6.35;1.15;;;13.80;79.70;;;;;;5053697;28;20025;-62
2021/05/16 08:00:54;;;;;;;6.22;1.00;;;13.80;79.60;;;;;;5058146;28;20168;-63
2021/05/16 08:03:20;;;;;;;7.38;1.40;;;13.80;79.60;;;;;;5051886;28;20037;-62
2021/05/16 08:05:45;;;;;;;10.23;1.30;;;13.80;79.90;;;;;;5062032;28;20028;-63
2021/05/16 08:08:11;;;;;;;22.80;2.42;;;13.80;80.00;;;;;;5058690;28;20021;-63
2021/05/16 08:10:37;;;;;;;15.48;2.08;;;13.90;80.00;;;;;;5062375;28;20542;-64
2021/05/16 08:13:02;;;;;;;18.15;2.45;;;13.90;80.00;;;;;;5059393;28;20100;-62
2021/05/16 08:15:28;;;;;;;19.05;2.47;;;13.90;80.10;;;;;;5064290;28;20028;-63
2021/05/16 08:17:53;;;;;;;12.50;1.83;;;13.90;80.10;;;;;;5060043;28;20042;-62
2021/05/16 08:20:19;;;;;;;23.60;2.90;;;13.90;80.10;;;;;;5064666;28;20125;-63
2021/05/16 08:22:44;;;;;;;16.15;1.92;;;14.00;80.20;;;;;;5058478;28;20267;-62
2021/05/16 08:25:11;;;;;;;20.55;2.28;;;14.00;80.20;;;;;;5061176;28;20037;-62
2021/05/16 08:27:37;;;;;;;11.68;2.20;;;14.10;80.10;;;;;;5065823;28;20033;-62
2021/05/16 08:30:04;;;;;;;20.77;2.08;;;14.10;80.00;;;;;;5066564;28;20711;-62
2021/05/16 08:32:29;;;;;;;23.15;2.72;;;14.10;79.80;;;;;;5063704;28;20027;-61
2021/05/16 08:34:55;;;;;;;46.90;4.18;;;14.20;79.90;;;;;;5048573;28;20395;-62
2021/05/16 08:37:20;;;;;;;35.13;3.97;;;14.20;80.00;;;;;;5059090;28;20040;-63
2021/05/16 08:39:46;;;;;;;34.00;4.30;;;14.30;80.00;;;;;;5065473;28;20111;-63
2021/05/16 08:42:11;;;;;;;29.20;3.72;;;14.40;79.80;;;;;;5048715;28;20024;-63
2021/05/16 08:44:37;;;;;;;36.20;3.80;;;14.40;79.50;;;;;;5047327;28;20127;-62
2021/05/16 08:47:03;;;;;;;29.80;4.13;;;14.50;79.30;;;;;;5061610;28;20119;-61
2021/05/16 08:49:28;;;;;;;43.55;4.53;;;14.60;79.00;;;;;;5059009;28;20055;-62
2021/05/16 08:51:54;;;;;;;42.05;4.75;;;14.60;79.20;;;;;;5059157;28;20125;-62
2021/05/16 08:54:20;;;;;;;36.00;4.63;;;14.60;78.80;;;;;;5064085;28;20033;-64
2021/05/16 08:56:49;;;;;;;25.10;3.70;;;14.70;78.60;;;;;;5062397;28;20033;-62
2021/05/16 08:59:14;;;;;;;41.13;4.63;;;14.80;78.00;;;;;;5065484;28;20036;-63
2021/05/16 09:01:47;;;;;;;45.40;4.47;;;14.90;78.30;;;;;;5063145;28;20037;-62
2021/05/16 09:04:22;;;;;;;42.35;4.72;;;14.90;77.80;;;;;;5056992;28;20357;-62
2021/05/16 09:06:52;;;;;;;;;;;15.00;77.60;;;;;;5066969;28;20115;-62
2021/05/16 09:09:44;;;;;;;54.15;4.90;;;15.00;77.50;;;;;;5059822;28;19908;-62
2021/05/16 09:12:15;;;;;;;54.67;5.03;;;14.80;76.90;;;;;;5052386;28;20047;-62
2021/05/16 09:14:45;;;;;;;56.80;7.55;;;15.10;77.10;;;;;;5061795;28;20042;-62
2021/05/16 09:17:23;;;;;;;61.63;6.78;;;15.20;76.70;;;;;;5054462;28;20143;-63
2021/05/16 09:19:50;;;;;;;98.93;8.55;;;15.20;76.80;;;;;;5060783;28;20535;-61
2021/05/16 09:22:29;;;;;;;94.00;9.07;;;15.20;76.80;;;;;;5059361;28;20017;-63
2021/05/16 09:25:08;;;;;;;72.72;8.00;;;15.30;76.80;;;;;;5044380;28;20055;-63
2021/05/16 09:27:36;;;;;;;75.63;9.57;;;15.40;76.80;;;;;;5063999;28;20020;-64
2021/05/16 09:30:17;;;;;;;62.80;7.97;;;15.40;76.70;;;;;;5063632;28;20051;-62
2021/05/16 09:32:57;;;;;;;96.13;9.82;;;15.50;76.30;;;;;;5060744;28;20537;-64
2021/05/16 09:35:34;;;;;;;90.57;9.32;;;15.60;76.00;;;;;;5057548;28;20021;-63
2021/05/16 09:38:10;;;;;;;116.50;9.77;;;15.60;76.00;;;;;;5045131;28;20083;-61
2021/05/16 09:40:44;;;;;;;105.20;12.32;;;15.70;76.10;;;;;;5062373;28;20032;-62
2021/05/16 09:43:13;;;;;;;84.28;9.50;;;15.70;76.00;;;;;;5060704;28;20028;-62
2021/05/16 09:46:08;;;;;;;74.40;9.75;;;15.80;76.00;;;;;;5053584;28;20410;-63
2021/05/16 09:48:38;;;;;;;102.85;9.90;;;15.80;75.90;;;;;;5057120;28;20048;-61
2021/05/16 09:51:04;;;;;;;118.85;11.02;;;15.90;75.80;;;;;;5054046;28;20055;-61
2021/05/16 09:53:30;;;;;;;153.75;12.85;;;15.90;75.50;;;;;;5061478;28;20033;-64
2021/05/16 09:56:20;;;;;;;125.93;11.63;;;16.00;75.60;;;;;;5055639;28;20052;-62
2021/05/16 09:58:45;;;;;;;120.32;10.93;;;16.00;75.90;;;;;;5058774;28;20036;-63
2021/05/16 10:01:12;;;;;;;108.32;10.00;;;16.10;75.40;;;;;;5060039;28;20091;-63
2021/05/16 10:03:37;;;;;;;103.90;9.00;;;16.20;75.20;;;;;;5052131;28;20888;-62
2021/05/16 10:06:03;;;;;;;117.22;13.00;;;16.20;75.00;;;;;;5057386;28;20073;-61
2021/05/16 10:08:32;;;;;;;80.75;9.80;;;16.30;74.90;;;;;;5060755;28;20484;-64
2021/05/16 10:10:58;;;;;;;109.20;12.35;;;16.40;74.40;;;;;;5061641;28;20020;-63
2021/05/16 10:13:26;;;;;;;99.50;11.40;;;16.40;74.30;;;;;;5058895;28;20025;-63
2021/05/16 10:15:52;;;;;;;110.13;11.27;;;16.40;74.30;;;;;;5058827;28;20106;-64
2021/05/16 10:18:18;;;;;;;96.05;10.13;;;16.50;74.50;;;;;;5060940;28;20060;-63
2021/05/16 10:20:43;;;;;;;102.03;11.45;;;16.50;74.40;;;;;;5059574;28;20179;-61
2021/05/16 10:23:10;;;;;;;120.13;10.52;;;16.60;74.50;;;;;;5061718;28;20089;-64
2021/05/16 10:25:41;;;;;;;102.50;10.30;;;16.60;74.20;;;;;;5058569;28;20050;-62
2021/05/16 10:28:07;;;;;;;99.32;10.45;;;16.60;74.20;;;;;;5055377;28;20029;-62
2021/05/16 10:30:32;;;;;;;89.28;9.43;;;16.70;73.90;;;;;;5060124;28;20052;-61
2021/05/16 10:32:58;;;;;;;104.63;10.10;;;16.70;73.90;;;;;;5054991;28;20020;-63
2021/05/16 10:35:23;;;;;;;66.85;8.45;;;16.70;73.90;;;;;;5061275;28;20468;-63
2021/05/16 10:37:55;;;;;;;100.25;9.27;;;16.70;73.70;;;;;;5059878;28;20051;-63
2021/05/16 10:40:24;;;;;;;113.38;12.52;;;16.60;73.70;;;;;;5059090;28;20046;-63
2021/05/16 10:42:56;;;;;;;129.38;11.65;;;16.70;74.10;;;;;;5060473;28;20224;-62
2021/05/16 10:45:33;;;;;;;106.40;9.70;;;16.60;73.80;;;;;;5052379;28;20028;-64
2021/05/16 10:48:20;;;;;;;118.40;11.25;;;16.70;74.10;;;;;;5061122;28;20093;-60
2021/05/16 10:50:57;;;;;;;199.18;17.20;;;16.70;74.10;;;;;;5043859;28;20026;-59
2021/05/16 10:53:26;;;;;;;106.03;10.80;;;16.70;74.40;;;;;;5064075;28;20032;-61
2021/05/16 10:56:10;;;;;;;118.88;11.25;;;16.70;74.10;;;;;;5060898;28;20040;-61
2021/05/16 10:58:43;;;;;;;129.15;12.70;;;16.70;74.30;;;;;;5061529;28;20106;-61
2021/05/16 11:01:09;;;;;;;179.32;14.45;;;16.70;74.30;;;;;;5075745;28;20040;-64
2021/05/16 11:04:00;;;;;;;145.73;14.85;;;16.70;74.20;;;;;;5056644;28;20032;-63
2021/05/16 11:06:34;;;;;;;139.63;13.23;;;16.80;74.50;;;;;;5059723;28;20054;-63
2021/05/16 11:09:00;;;;;;;113.50;11.60;;;16.80;74.70;;;;;;5056896;28;20025;-63
2021/05/16 11:11:35;;;;;;;87.28;9.82;;;16.80;75.30;;;;;;5057921;28;20028;-62
2021/05/16 11:14:14;;;;;;;122.00;11.32;;;16.80;75.40;;;;;;5053760;28;20052;-62
2021/05/16 11:17:04;;;;;;;97.82;9.80;;;16.90;75.50;;;;;;5051188;28;20094;-62
2021/05/16 11:19:32;;;;;;;116.78;10.38;;;16.90;75.40;;;;;;5057977;28;20443;-62
2021/05/16 11:21:58;;;;;;;139.68;11.55;;;17.00;75.30;;;;;;5059012;28;20059;-62
2021/05/16 11:24:40;;;;;;;158.15;13.98;;;17.00;75.60;;;;;;5061775;28;20691;-63
2021/05/16 11:27:14;;;;;;;172.13;14.95;;;17.00;75.90;;;;;;5059843;28;20500;-63
2021/05/16 11:29:39;;;;;;;150.77;14.07;;;17.10;75.90;;;;;;5056286;28;20419;-61
2021/05/16 11:32:05;;;;;;;133.63;13.80;;;17.10;75.80;;;;;;5052813;28;20043;-62
2021/05/16 11:34:30;;;;;;;153.18;13.13;;;17.10;76.00;;;;;;5061349;28;20089;-62
2021/05/16 11:36:56;;;;;;;175.38;16.13;;;17.10;76.10;;;;;;5057058;28;20028;-62
2021/05/16 11:39:22;;;;;;;160.70;14.90;;;17.10;76.10;;;;;;5057242;28;20480;-61
2021/05/16 11:41:47;;;;;;;199.75;18.38;;;17.10;76.60;;;;;;5073663;28;20400;-62
2021/05/16 11:44:14;;;;;;;133.88;14.60;;;17.10;76.60;;;;;;5061041;28;20032;-61
2021/05/16 11:46:41;;;;;;;135.90;13.38;;;17.10;76.80;;;;;;5058350;28;20040;-61
2021/05/16 11:49:07;;;;;;;140.45;14.93;;;17.10;76.70;;;;;;5050360;28;20468;-61
2021/05/16 11:51:33;;;;;;;141.38;13.85;;;17.10;77.10;;;;;;5056840;28;20028;-62
2021/05/16 11:54:11;;;;;;;136.40;12.88;;;17.10;77.20;;;;;;5050692;28;20041;-62
2021/05/16 11:56:45;;;;;;;136.93;14.38;;;17.20;77.80;;;;;;5057328;28;20020;-61
2021/05/16 11:59:11;;;;;;;148.10;16.27;;;17.20;77.90;;;;;;5059062;28;20055;-62
2021/05/16 12:01:38;;;;;;;147.82;12.73;;;17.20;78.00;;;;;;5054784;28;20708;-62
2021/05/16 12:04:16;;;;;;;179.65;17.13;;;17.30;78.20;;;;;;5058836;28;20367;-61
2021/05/16 12:06:43;;;;;;;168.20;15.27;;;17.30;78.60;;;;;;5031033;28;20139;-61
2021/05/16 12:09:17;;;;;;;163.10;16.55;;;17.30;79.10;;;;;;5050218;28;20021;-62
2021/05/16 12:11:45;;;;;;;143.25;14.20;;;17.30;78.40;;;;;;5046351;28;20025;-61
2021/05/16 12:14:18;;;;;;;148.18;15.23;;;17.40;78.30;;;;;;5068998;28;20462;-62
2021/05/16 12:17:10;;;;;;;178.43;17.38;;;17.40;78.90;;;;;;5043628;28;20024;-61
2021/05/16 12:19:37;;;;;;;188.73;17.83;;;17.40;79.00;;;;;;5050779;28;20123;-61
2021/05/16 12:22:07;;;;;;;174.88;13.75;;;17.50;79.00;;;;;;5057003;28;20024;-62
2021/05/16 12:24:37;;;;;;;169.95;14.35;;;17.50;79.00;;;;;;5053119;28;20036;-62
2021/05/16 12:27:06;;;;;;;180.23;18.13;;;17.50;79.20;;;;;;5059200;28;20086;-62
2021/05/16 12:29:32;;;;;;;167.80;15.77;;;17.50;79.20;;;;;;5054504;28;20805;-62
2021/05/16 12:31:57;;;;;;;157.20;16.85;;;17.50;79.20;;;;;;5057549;28;20102;-61
2021/05/16 12:34:24;;;;;;;150.68;16.17;;;17.60;79.60;;;;;;5055795;28;20047;-62
2021/05/16 12:36:58;;;;;;;213.90;17.80;;;17.60;79.60;;;;;;5057566;28;20611;-62
2021/05/16 12:39:43;;;;;;;166.27;17.65;;;17.60;79.50;;;;;;5056060;28;20032;-61